< Typhoon 195117 1951 Season Typhoon 195119 >
Typhoon 195118 (VERA)
General InformationTrack Information on Google Maps || Disaster Info.ResourceGoogle EarthGE AnimationAtom FeedGeoJSON
Detalied Best Track (Time Zone = UTC)
Year Month Day Hour Lat. Long. Pressure (hPa) Wind (kt) Class Image Chart
1951 10 28 06 16.0 128.0 1006 0 2 -- Chart
1951 10 28 12 17.0 128.0 1008 0 2 -- Chart
1951 10 28 18 18.0 128.1 1008 0 2 -- Chart
1951 10 29 00 19.0 128.2 1008 0 2 -- Chart
1951 10 29 06 20.0 128.4 1006 0 2 -- Chart
1951 10 29 12 20.6 129.0 1006 0 2 -- Chart
1951 10 29 18 21.7 130.6 1004 0 2 -- Chart
1951 10 30 00 23.0 132.0 1004 0 2 -- Chart
1951 10 30 06 24.3 133.6 1004 0 2 -- Chart
1951 10 30 12 25.8 135.8 1002 0 2 -- Chart
1951 10 30 18 27.3 138.5 1002 0 2 -- Chart
1951 10 31 00 28.6 141.3 998 0 9 -- Chart
1951 10 31 06 29.8 144.3 990 0 9 -- Chart
1951 10 31 12 30.7 147.4 990 0 9 -- Chart
1951 10 31 18 31.6 150.5 980 0 9 -- Chart
1951 11 1 00 32.7 154.0 980 0 9 -- Chart
1951 11 1 06 33.7 157.3 990 0 9 -- Chart
1951 11 1 12 34.6 160.3 990 0 9 -- Chart
1951 11 1 18 35.4 163.4 990 0 6 -- Chart
1951 11 2 00 36.2 167.2 990 0 6 -- Chart
1951 11 2 06 37.2 171.0 992 0 6 -- Chart
1951 11 2 12 38.2 175.0 995 0 6 -- Chart
1951 11 2 18 39.5 179.0 1000 0 6 -- Chart
1951 11 3 00 40.5 182.0 1000 0 6 -- Chart
Japan Meteorological Agency Best Track Data | Correction Date : 1991-07-16
< Typhoon 195117 1951 Season Typhoon 195119 >

Help